createdAt,value
2022-09-29T00:01:34.919Z,98653.97
2022-09-29T00:04:23.468Z,98638.63
2022-09-29T00:07:11.987Z,98655.38
2022-09-29T00:10:00.399Z,98643.72
2022-09-29T00:12:48.876Z,98648.00
2022-09-29T00:15:37.287Z,98644.13
2022-09-29T00:18:27.361Z,98642.31
2022-09-29T00:21:19.606Z,98639.25
2022-09-29T00:24:08.190Z,98637.84
2022-09-29T00:26:56.739Z,98636.66
2022-09-29T00:29:45.589Z,98641.75
2022-09-29T00:32:34.000Z,98622.16
2022-09-29T00:35:23.770Z,98627.41
2022-09-29T00:38:12.249Z,98626.75
2022-09-29T00:41:01.213Z,98630.03
2022-09-29T00:43:56.923Z,98629.41
2022-09-29T00:46:47.307Z,98621.78
2022-09-29T00:49:40.935Z,98623.41
2022-09-29T00:52:33.532Z,98627.28
2022-09-29T00:55:26.369Z,98621.41
2022-09-29T00:58:22.740Z,98555.63
2022-09-29T01:01:11.489Z,98599.28
2022-09-29T01:04:03.580Z,98616.25
2022-09-29T01:06:54.914Z,98619.28
2022-09-29T01:09:44.800Z,98616.63
2022-09-29T01:12:33.635Z,98603.44
2022-09-29T01:15:23.096Z,98596.81
2022-09-29T01:18:11.963Z,98612.63
2022-09-29T01:21:11.164Z,98614.19
2022-09-29T01:24:15.129Z,98603.13
2022-09-29T01:27:15.016Z,98613.53
2022-09-29T01:30:10.208Z,98615.56
2022-09-29T01:33:23.743Z,98618.00
2022-09-29T01:36:18.631Z,98614.69
2022-09-29T01:39:14.588Z,98618.81
2022-09-29T01:42:08.072Z,98615.59
2022-09-29T01:45:00.301Z,98620.50
2022-09-29T01:47:51.352Z,98622.09
2022-09-29T01:50:45.194Z,98595.78
2022-09-29T01:53:37.897Z,98634.75
2022-09-29T01:56:29.007Z,98635.34
2022-09-29T01:59:20.236Z,98642.56
2022-09-29T02:02:11.491Z,98644.81
2022-09-29T02:05:03.016Z,98639.25
2022-09-29T02:07:54.104Z,98645.00
2022-09-29T02:10:47.418Z,98639.69
2022-09-29T02:13:38.972Z,98602.09
2022-09-29T02:16:30.844Z,98637.34
2022-09-29T02:19:22.137Z,98636.78
2022-09-29T02:22:10.690Z,98630.84
2022-09-29T02:25:00.807Z,98635.47
2022-09-29T02:27:50.349Z,98638.50
2022-09-29T02:30:38.859Z,98634.00
2022-09-29T02:33:27.469Z,98639.88
2022-09-29T02:36:31.062Z,98653.81
2022-09-29T02:39:31.742Z,98635.63
2022-09-29T02:42:26.924Z,98639.44
2022-09-29T02:45:23.648Z,98637.00
2022-09-29T02:48:37.615Z,98635.69
2022-09-29T02:51:30.490Z,98631.63
2022-09-29T02:54:31.026Z,98631.22
2022-09-29T02:57:24.763Z,98582.50
2022-09-29T03:00:17.660Z,98624.84
2022-09-29T03:03:06.185Z,98633.47
2022-09-29T03:05:54.736Z,98629.75
2022-09-29T03:08:43.276Z,98625.03
2022-09-29T03:11:31.679Z,98627.25
2022-09-29T03:14:21.481Z,98620.88
2022-09-29T03:17:10.150Z,98625.84
2022-09-29T03:19:58.740Z,98619.31
2022-09-29T03:22:47.212Z,98611.41
2022-09-29T03:25:35.778Z,98549.41
2022-09-29T03:28:24.177Z,98612.00
2022-09-29T03:31:14.012Z,98600.72
2022-09-29T03:34:02.458Z,98605.50
2022-09-29T03:36:50.881Z,98599.19
2022-09-29T03:39:39.373Z,98609.50
2022-09-29T03:42:28.457Z,98599.28
2022-09-29T03:45:16.983Z,98603.81
2022-09-29T03:48:06.837Z,98605.22
2022-09-29T03:50:55.264Z,98597.44
2022-09-29T03:53:43.705Z,98582.81
2022-09-29T03:56:32.300Z,98601.59
2022-09-29T03:59:20.820Z,98603.84
2022-09-29T04:02:09.327Z,98610.44
2022-09-29T04:04:59.160Z,98601.47
2022-09-29T04:07:47.569Z,98609.47
2022-09-29T04:10:36.082Z,98619.31
2022-09-29T04:13:24.487Z,98626.06
2022-09-29T04:16:12.969Z,98620.94
2022-09-29T04:19:01.472Z,98618.66
2022-09-29T04:21:51.257Z,98624.81
2022-09-29T04:24:40.212Z,98616.75
2022-09-29T04:27:28.648Z,98624.81
2022-09-29T04:30:17.305Z,98633.84
2022-09-29T04:33:05.742Z,98629.31
2022-09-29T04:35:54.212Z,98635.91
2022-09-29T04:38:43.986Z,98630.16
2022-09-29T04:41:34.793Z,98626.47
2022-09-29T04:44:24.841Z,98631.81
2022-09-29T04:47:13.671Z,98633.28
2022-09-29T04:50:02.096Z,98596.19
2022-09-29T04:52:50.599Z,98635.19
2022-09-29T04:55:41.637Z,98641.34
2022-09-29T04:58:30.079Z,98638.47
2022-09-29T05:01:18.550Z,98646.47
2022-09-29T05:04:07.680Z,98642.56
2022-09-29T05:06:56.108Z,98648.84
2022-09-29T05:09:44.553Z,98643.53
2022-09-29T05:12:34.348Z,98648.91
2022-09-29T05:15:25.987Z,98655.63
2022-09-29T05:18:14.678Z,98653.00
2022-09-29T05:24:15.703Z,98655.97
2022-09-29T05:27:04.394Z,98665.06
2022-09-29T05:29:54.189Z,98660.00
2022-09-29T05:32:44.342Z,98648.31
2022-09-29T05:35:32.941Z,98652.59
2022-09-29T05:38:22.958Z,98659.94
2022-09-29T05:41:13.213Z,98663.78
2022-09-29T05:44:02.198Z,98664.88
2022-09-29T05:46:52.428Z,98663.00
2022-09-29T05:49:40.851Z,98660.75
2022-09-29T05:52:29.223Z,98659.59
2022-09-29T05:55:17.769Z,98669.34
2022-09-29T05:58:06.637Z,98665.81
2022-09-29T06:00:55.121Z,98661.50
2022-09-29T06:03:45.008Z,98668.03
2022-09-29T06:06:36.169Z,98673.13
2022-09-29T06:09:24.584Z,98669.00
2022-09-29T06:12:12.996Z,98665.69
2022-09-29T06:15:01.432Z,98675.63
2022-09-29T06:17:56.395Z,98671.34
2022-09-29T06:20:47.562Z,98673.97
2022-09-29T06:23:36.083Z,98657.44
2022-09-29T06:26:25.800Z,98667.84
2022-09-29T06:29:15.741Z,98654.22
2022-09-29T06:32:04.403Z,98630.50
2022-09-29T06:35:10.596Z,98674.63
2022-09-29T06:38:02.625Z,98679.88
2022-09-29T06:40:51.274Z,98672.78
2022-09-29T06:43:39.772Z,98669.59
2022-09-29T06:46:28.599Z,98621.69
2022-09-29T06:49:17.154Z,98679.53
2022-09-29T06:52:16.507Z,98685.19
2022-09-29T06:55:10.422Z,98688.50
2022-09-29T06:58:03.501Z,98684.22
2022-09-29T07:00:52.435Z,98697.06
2022-09-29T07:03:41.227Z,98693.03
2022-09-29T07:06:30.401Z,98694.00
2022-09-29T07:09:19.136Z,98696.25
2022-09-29T07:12:09.397Z,98695.00
2022-09-29T07:14:57.851Z,98702.38
2022-09-29T07:17:46.307Z,98699.78
2022-09-29T07:20:36.849Z,98696.09
2022-09-29T07:23:26.045Z,98697.41
2022-09-29T07:26:16.417Z,98692.72
2022-09-29T07:29:06.396Z,98692.50
2022-09-29T07:31:55.406Z,98699.34
2022-09-29T07:34:43.893Z,98704.03
2022-09-29T07:37:32.378Z,98700.91
2022-09-29T07:40:21.666Z,98697.63
2022-09-29T07:43:10.264Z,98722.19
2022-09-29T07:46:01.273Z,98713.31
2022-09-29T07:48:49.795Z,98712.72
2022-09-29T07:51:38.220Z,98714.03
2022-09-29T07:54:29.471Z,98716.59
2022-09-29T07:57:18.270Z,98705.09
2022-09-29T08:00:07.603Z,98717.97
2022-09-29T08:03:00.056Z,98719.16
2022-09-29T08:05:49.219Z,98720.06
2022-09-29T08:08:37.908Z,98725.78
2022-09-29T08:11:31.478Z,98710.16
2022-09-29T08:14:20.442Z,98728.53
2022-09-29T08:17:08.996Z,98730.69
2022-09-29T08:19:58.825Z,98737.97
2022-09-29T08:22:48.257Z,98728.66
2022-09-29T08:25:36.729Z,98730.97
2022-09-29T08:28:31.578Z,98729.94
2022-09-29T08:31:22.933Z,98730.63
2022-09-29T08:34:11.503Z,98738.59
2022-09-29T08:37:01.344Z,98744.19
2022-09-29T08:39:49.837Z,98742.69
2022-09-29T08:42:49.189Z,98745.69
2022-09-29T08:45:48.453Z,98752.44
2022-09-29T08:48:55.465Z,98759.16
2022-09-29T08:51:48.637Z,98762.44
2022-09-29T08:54:46.160Z,98767.00
2022-09-29T08:57:37.147Z,98771.78
2022-09-29T09:00:34.694Z,98771.22
2022-09-29T09:03:46.123Z,98778.22
2022-09-29T09:06:47.486Z,98776.13
2022-09-29T09:09:46.477Z,98781.69
2022-09-29T09:12:52.021Z,98787.50
2022-09-29T09:15:48.680Z,98780.56
2022-09-29T09:19:04.953Z,98778.38
2022-09-29T09:21:59.337Z,98777.16
2022-09-29T09:25:00.566Z,98776.16
2022-09-29T09:27:56.437Z,98782.22
2022-09-29T09:30:49.193Z,98775.69
2022-09-29T09:33:41.097Z,98780.94
2022-09-29T09:36:34.763Z,98761.94
2022-09-29T09:39:28.349Z,98781.31
2022-09-29T09:42:20.312Z,98781.78
2022-09-29T09:45:14.650Z,98781.31
2022-09-29T09:48:06.997Z,98768.78
2022-09-29T09:50:55.585Z,98774.97
2022-09-29T09:53:44.554Z,98778.53
2022-09-29T09:56:45.709Z,98777.97
2022-09-29T09:59:42.867Z,98779.00
2022-09-29T10:02:32.117Z,98784.72
2022-09-29T10:05:24.028Z,98773.22
2022-09-29T10:08:15.705Z,98782.78
2022-09-29T10:11:04.181Z,98779.88
2022-09-29T10:13:59.503Z,98775.03
2022-09-29T10:16:51.869Z,98779.72
2022-09-29T10:19:58.555Z,98777.59
2022-09-29T10:22:51.716Z,98772.94
2022-09-29T10:25:40.684Z,98779.97
2022-09-29T10:28:31.151Z,98786.97
2022-09-29T10:31:22.963Z,98781.06
2022-09-29T10:34:17.621Z,98785.41
2022-09-29T10:37:07.445Z,98690.63
2022-09-29T10:40:05.108Z,98779.47
2022-09-29T10:42:53.919Z,98780.84
2022-09-29T10:45:49.094Z,98782.28
2022-09-29T10:48:37.994Z,98782.72
2022-09-29T10:51:27.791Z,98787.13
2022-09-29T10:54:17.179Z,98780.09
2022-09-29T10:57:16.321Z,98757.28
2022-09-29T11:00:07.165Z,98769.16
2022-09-29T11:03:01.640Z,98780.25
2022-09-29T11:05:53.260Z,98779.47
2022-09-29T11:09:02.981Z,98775.69
2022-09-29T11:12:00.261Z,98726.13
2022-09-29T11:14:49.988Z,98788.13
2022-09-29T11:17:39.402Z,98782.69
2022-09-29T11:20:33.052Z,98784.28
2022-09-29T11:23:29.023Z,98769.31
2022-09-29T11:26:28.568Z,98783.69
2022-09-29T11:29:32.460Z,98786.94
2022-09-29T11:32:32.806Z,98791.28
2022-09-29T11:35:33.761Z,98794.50
2022-09-29T11:38:42.741Z,98793.72
2022-09-29T11:41:48.923Z,98798.03
2022-09-29T11:44:59.227Z,98803.16
2022-09-29T11:48:21.277Z,98800.19
2022-09-29T11:51:16.890Z,98798.78
2022-09-29T11:54:22.397Z,98800.47
2022-09-29T11:57:19.278Z,98776.09
2022-09-29T12:00:11.940Z,98794.75
2022-09-29T12:03:17.856Z,98796.66
2022-09-29T12:06:22.257Z,98792.63
2022-09-29T12:09:33.258Z,98794.81
2022-09-29T12:12:28.658Z,98795.78
2022-09-29T12:18:19.683Z,98787.88
2022-09-29T12:21:11.874Z,98793.53
2022-09-29T12:24:04.865Z,98787.84
2022-09-29T12:26:54.260Z,98789.69
2022-09-29T12:29:46.105Z,98788.31
2022-09-29T12:32:38.686Z,98789.41
2022-09-29T12:35:32.490Z,98792.66
2022-09-29T12:38:24.137Z,98794.34
2022-09-29T12:41:14.914Z,98792.97
2022-09-29T12:44:10.200Z,98787.03
2022-09-29T12:47:04.370Z,98791.06
2022-09-29T12:50:02.488Z,98785.41
2022-09-29T12:52:57.318Z,98788.94
2022-09-29T12:55:50.858Z,98748.97
2022-09-29T12:58:43.502Z,98777.38
2022-09-29T13:01:33.811Z,98796.03
2022-09-29T13:05:00.789Z,98793.56
2022-09-29T13:08:28.277Z,98799.56
2022-09-29T13:11:35.727Z,98762.84
2022-09-29T13:14:39.820Z,98798.31
2022-09-29T13:17:40.484Z,98795.91
2022-09-29T13:20:43.729Z,98796.19
2022-09-29T13:23:40.882Z,98814.63
2022-09-29T13:26:42.347Z,98807.59
2022-09-29T13:29:32.298Z,98782.13
2022-09-29T13:32:21.125Z,98815.41
2022-09-29T13:35:17.186Z,98818.66
2022-09-29T13:38:08.633Z,98808.38
2022-09-29T13:41:15.391Z,98817.50
2022-09-29T13:44:06.429Z,98797.78
2022-09-29T13:46:56.079Z,98819.44
2022-09-29T13:49:44.585Z,98825.94
2022-09-29T13:52:40.929Z,98820.19
2022-09-29T13:55:52.875Z,98823.47
2022-09-29T13:58:59.710Z,98825.88
2022-09-29T14:01:48.253Z,98832.31
2022-09-29T14:04:52.368Z,98831.53
2022-09-29T14:07:45.825Z,98837.41
2022-09-29T14:10:40.427Z,98823.78
2022-09-29T14:13:33.232Z,98841.00
2022-09-29T14:16:47.930Z,98790.16
2022-09-29T14:19:40.803Z,98829.88
2022-09-29T14:23:05.996Z,98829.63
2022-09-29T14:25:55.340Z,98828.59
2022-09-29T14:28:45.295Z,98830.50
2022-09-29T14:31:34.963Z,98832.06
2022-09-29T14:34:25.629Z,98804.47
2022-09-29T14:37:19.949Z,98848.88
2022-09-29T14:40:26.854Z,98851.09
2022-09-29T14:43:16.653Z,98848.41
2022-09-29T14:46:35.166Z,98854.06
2022-09-29T14:49:59.026Z,98722.72
2022-09-29T14:52:56.266Z,98845.72
2022-09-29T14:55:54.586Z,98845.47
2022-09-29T14:58:58.394Z,98854.13
2022-09-29T15:02:07.818Z,98865.69
2022-09-29T15:04:56.841Z,98864.06
2022-09-29T15:07:45.340Z,98818.56
2022-09-29T15:10:41.491Z,98851.91
2022-09-29T15:13:31.835Z,98808.56
2022-09-29T15:16:24.284Z,98834.25
2022-09-29T15:19:30.849Z,98875.31
2022-09-29T15:22:32.509Z,98858.00
2022-09-29T15:25:26.479Z,98846.06
2022-09-29T15:28:17.636Z,98857.13
2022-09-29T15:31:08.651Z,98870.28
2022-09-29T15:33:57.407Z,98862.25
2022-09-29T15:36:49.700Z,98849.72
2022-09-29T15:39:45.054Z,98874.31
2022-09-29T15:42:39.869Z,98877.03
2022-09-29T15:45:29.546Z,98834.41
2022-09-29T15:48:17.971Z,98875.03
2022-09-29T15:51:06.620Z,98890.44
2022-09-29T15:53:56.963Z,98888.75
2022-09-29T15:57:05.538Z,98891.72
2022-09-29T15:59:55.078Z,98887.31
2022-09-29T16:02:44.315Z,98901.31
2022-09-29T16:05:39.090Z,98776.06
2022-09-29T16:08:31.604Z,98898.16
2022-09-29T16:11:25.169Z,98898.41
2022-09-29T16:14:20.513Z,98900.03
2022-09-29T16:17:09.729Z,98892.38
2022-09-29T16:20:00.023Z,98903.19
2022-09-29T16:22:48.965Z,98910.97
2022-09-29T16:25:37.443Z,98911.47
2022-09-29T16:28:29.510Z,98907.34
2022-09-29T16:31:22.168Z,98915.44
2022-09-29T16:34:31.459Z,98925.88
2022-09-29T16:37:20.068Z,98920.97
2022-09-29T16:40:20.656Z,98929.59
2022-09-29T16:43:23.028Z,98930.56
2022-09-29T16:46:16.356Z,98940.25
2022-09-29T16:49:05.228Z,98933.66
2022-09-29T16:51:55.087Z,98946.25
2022-09-29T16:54:45.205Z,98947.25
2022-09-29T16:57:34.608Z,98958.78
2022-09-29T17:00:23.731Z,98969.25
2022-09-29T17:03:14.891Z,98957.59
2022-09-29T17:06:05.505Z,98969.84
2022-09-29T17:08:53.995Z,98973.84
2022-09-29T17:11:42.492Z,98971.09
2022-09-29T17:14:31.846Z,98972.94
2022-09-29T17:17:23.315Z,98987.78
2022-09-29T17:20:16.497Z,98986.06
2022-09-29T17:23:05.915Z,98993.56
2022-09-29T17:26:14.905Z,99001.88
2022-09-29T17:29:02.467Z,99011.75
2022-09-29T17:31:51.016Z,99019.41
2022-09-29T17:34:39.546Z,99025.19
2022-09-29T17:37:29.473Z,99029.19
2022-09-29T17:40:21.873Z,99029.91
2022-09-29T17:43:10.422Z,99013.75
2022-09-29T17:46:00.513Z,99025.56
2022-09-29T17:48:49.249Z,99030.38
2022-09-29T17:51:37.745Z,99035.28
2022-09-29T17:54:27.844Z,99034.38
2022-09-29T17:57:21.732Z,99037.28
2022-09-29T18:00:16.973Z,99053.56
2022-09-29T18:03:06.048Z,99040.03
2022-09-29T18:05:58.192Z,99023.81
2022-09-29T18:08:49.300Z,99056.59
2022-09-29T18:11:42.728Z,99062.44
2022-09-29T18:14:35.305Z,99062.31
2022-09-29T18:17:23.866Z,99060.91
2022-09-29T18:20:15.874Z,99061.16
2022-09-29T18:23:04.780Z,99053.00
2022-09-29T18:25:54.041Z,99048.66
2022-09-29T18:28:49.049Z,99057.78
2022-09-29T18:31:38.247Z,99059.88
2022-09-29T18:34:27.020Z,99053.34
2022-09-29T18:37:16.701Z,99052.28
2022-09-29T18:40:06.139Z,99064.09
2022-09-29T18:42:57.625Z,99064.69
2022-09-29T18:45:48.278Z,99062.00
2022-09-29T18:48:36.770Z,99071.66
2022-09-29T18:51:26.308Z,99064.69
2022-09-29T18:54:15.969Z,99071.06
2022-09-29T18:57:05.828Z,99062.00
2022-09-29T18:59:54.400Z,99072.00
2022-09-29T19:02:45.833Z,99079.38
2022-09-29T19:05:36.069Z,99083.34
2022-09-29T19:08:25.189Z,99058.59
2022-09-29T19:11:18.467Z,99073.91
2022-09-29T19:14:08.601Z,99077.50
2022-09-29T19:16:57.153Z,99077.03
2022-09-29T19:19:47.703Z,99084.97
2022-09-29T19:22:42.016Z,99069.31
2022-09-29T19:25:33.441Z,99058.94
2022-09-29T19:28:23.905Z,99094.41
2022-09-29T19:31:15.160Z,99098.75
2022-09-29T19:34:04.008Z,99080.41
2022-09-29T19:36:55.192Z,99101.06
2022-09-29T19:39:46.822Z,99047.16
2022-09-29T19:42:35.576Z,99092.88
2022-09-29T19:45:24.149Z,99108.41
2022-09-29T19:48:16.461Z,99110.72
2022-09-29T19:51:22.749Z,99114.34
2022-09-29T19:54:14.570Z,99114.94
2022-09-29T19:57:05.618Z,99062.38
2022-09-29T19:59:54.797Z,99110.00
2022-09-29T20:02:44.761Z,99040.44
2022-09-29T20:05:33.340Z,99110.50
2022-09-29T20:08:21.987Z,99112.16
2022-09-29T20:11:12.913Z,99119.59
2022-09-29T20:14:03.476Z,99128.25
2022-09-29T20:16:57.896Z,99128.25
2022-09-29T20:19:47.836Z,99134.41
2022-09-29T20:22:36.909Z,99088.50
2022-09-29T20:25:25.495Z,99129.50
2022-09-29T20:28:15.802Z,99138.22
2022-09-29T20:31:05.233Z,99138.00
2022-09-29T20:33:54.243Z,99132.53
2022-09-29T20:36:42.830Z,99131.00
2022-09-29T20:39:31.748Z,99138.59
2022-09-29T20:42:20.966Z,98981.59
2022-09-29T20:45:11.948Z,99132.63
2022-09-29T20:48:00.572Z,99131.69
2022-09-29T20:50:49.400Z,99142.25
2022-09-29T20:53:40.412Z,99140.25
2022-09-29T20:56:31.279Z,99127.50
2022-09-29T20:59:21.265Z,99148.75
2022-09-29T21:02:11.914Z,99147.13
2022-09-29T21:05:00.471Z,99148.63
2022-09-29T21:07:49.087Z,99149.31
2022-09-29T21:10:37.736Z,99163.78
2022-09-29T21:13:26.239Z,99164.81
2022-09-29T21:16:14.778Z,99170.00
2022-09-29T21:19:05.100Z,99168.06
2022-09-29T21:21:53.740Z,99179.38
2022-09-29T21:24:42.203Z,99168.22
2022-09-29T21:27:31.759Z,99171.72
2022-09-29T21:30:20.262Z,99176.63
2022-09-29T21:33:08.716Z,99191.66
2022-09-29T21:36:00.368Z,99188.25
2022-09-29T21:38:49.052Z,99202.00
2022-09-29T21:41:38.982Z,99211.31
2022-09-29T21:44:27.473Z,99204.38
2022-09-29T21:47:15.958Z,99206.00
2022-09-29T21:50:06.836Z,99207.31
2022-09-29T21:52:56.666Z,99217.47
2022-09-29T21:55:45.173Z,99212.59
2022-09-29T21:58:33.873Z,99217.19
2022-09-29T22:01:22.539Z,99219.72
2022-09-29T22:04:11.720Z,99194.16
2022-09-29T22:07:01.341Z,99230.47
2022-09-29T22:09:51.118Z,99224.53
2022-09-29T22:12:39.583Z,99224.63
2022-09-29T22:15:28.364Z,99222.00
2022-09-29T22:18:16.829Z,99225.34
2022-09-29T22:21:07.081Z,99233.97
2022-09-29T22:23:56.375Z,99226.97
2022-09-29T22:26:46.151Z,99238.00
2022-09-29T22:29:34.595Z,99238.84
2022-09-29T22:32:23.441Z,99243.75
2022-09-29T22:35:11.941Z,99246.66
2022-09-29T22:38:00.474Z,99255.53
2022-09-29T22:40:50.027Z,99247.59
2022-09-29T22:43:40.040Z,99231.22
2022-09-29T22:46:30.542Z,99261.41
2022-09-29T22:49:19.036Z,99258.72
2022-09-29T22:52:07.512Z,99253.94
2022-09-29T22:54:55.965Z,99256.63
2022-09-29T22:57:44.415Z,99264.06
2022-09-29T23:00:34.204Z,99261.00
2022-09-29T23:03:22.618Z,99265.91
2022-09-29T23:06:11.460Z,99239.91
2022-09-29T23:08:59.952Z,99244.59
2022-09-29T23:11:49.102Z,99257.97
2022-09-29T23:14:37.536Z,99255.13
2022-09-29T23:17:29.736Z,99261.31
2022-09-29T23:20:18.255Z,99259.88
2022-09-29T23:23:06.663Z,99259.28
2022-09-29T23:25:55.103Z,99266.69
2022-09-29T23:28:43.799Z,99264.41
2022-09-29T23:31:32.345Z,99267.09
2022-09-29T23:34:23.656Z,99261.94
2022-09-29T23:37:12.119Z,99240.66
2022-09-29T23:39:59.583Z,99252.63
2022-09-29T23:42:47.979Z,99259.44
2022-09-29T23:45:36.452Z,99264.31
2022-09-29T23:48:24.872Z,99241.94
2022-09-29T23:51:14.970Z,99261.19
2022-09-29T23:54:03.991Z,99258.78
2022-09-29T23:56:53.593Z,99265.19
2022-09-29T23:59:42.085Z,99278.56
